createdAt,value
2022-08-23T00:02:22.961Z,100159.88
2022-08-23T00:04:55.787Z,100155.34
2022-08-23T00:07:40.304Z,100160.50
2022-08-23T00:10:11.808Z,100170.53
2022-08-23T00:12:39.730Z,100172.09
2022-08-23T00:15:10.364Z,100182.97
2022-08-23T00:17:37.680Z,100180.72
2022-08-23T00:20:08.287Z,100172.47
2022-08-23T00:22:36.255Z,100167.94
2022-08-23T00:25:10.044Z,100178.34
2022-08-23T00:27:37.841Z,100182.19
2022-08-23T00:30:09.452Z,100169.97
2022-08-23T00:32:38.312Z,100171.06
2022-08-23T00:35:09.859Z,100173.81
2022-08-23T00:37:37.778Z,100171.31
2022-08-23T00:40:10.797Z,100173.09
2022-08-23T00:43:29.120Z,100172.97
2022-08-23T00:46:41.019Z,100173.94
2022-08-23T00:49:13.057Z,100163.53
2022-08-23T00:51:58.049Z,100157.94
2022-08-23T00:54:29.546Z,100163.91
2022-08-23T00:56:59.350Z,100167.25
2022-08-23T00:59:26.917Z,100182.03
2022-08-23T01:01:53.890Z,100167.84
2022-08-23T01:04:21.292Z,100170.59
2022-08-23T01:06:54.523Z,100168.09
2022-08-23T01:09:22.425Z,100166.53
2022-08-23T01:12:10.089Z,100169.50
2022-08-23T01:14:45.056Z,100169.03
2022-08-23T01:17:19.888Z,100177.75
2022-08-23T01:19:49.295Z,100172.16
2022-08-23T01:22:32.040Z,100171.78
2022-08-23T01:25:06.787Z,100178.97
2022-08-23T01:27:35.754Z,100184.47
2022-08-23T01:30:05.300Z,100192.09
2022-08-23T01:32:41.021Z,100192.34
2022-08-23T01:35:08.545Z,100184.91
2022-08-23T01:37:35.979Z,100188.13
2022-08-23T01:40:03.207Z,100187.06
2022-08-23T01:42:30.278Z,100190.06
2022-08-23T01:44:57.288Z,100185.38
2022-08-23T01:47:24.332Z,100183.75
2022-08-23T01:49:51.836Z,100188.63
2022-08-23T01:52:19.823Z,100183.75
2022-08-23T01:54:46.779Z,100187.53
2022-08-23T01:57:14.006Z,100181.34
2022-08-23T01:59:43.141Z,100191.47
2022-08-23T02:02:10.097Z,100180.50
2022-08-23T02:04:36.891Z,100182.78
2022-08-23T02:07:04.039Z,100179.44
2022-08-23T02:09:32.136Z,100189.34
2022-08-23T02:11:59.925Z,100193.53
2022-08-23T02:14:26.736Z,100193.75
2022-08-23T02:17:03.621Z,100186.94
2022-08-23T02:19:34.864Z,100186.13
2022-08-23T02:22:02.215Z,100172.63
2022-08-23T02:24:31.659Z,100166.28
2022-08-23T02:27:04.037Z,100155.53
2022-08-23T02:29:39.281Z,100167.84
2022-08-23T02:32:07.227Z,100172.75
2022-08-23T02:34:36.628Z,100172.16
2022-08-23T02:37:03.980Z,100169.41
2022-08-23T02:39:31.077Z,100163.53
2022-08-23T02:41:57.931Z,100162.69
2022-08-23T02:44:25.164Z,100161.00
2022-08-23T02:46:52.037Z,100163.16
2022-08-23T02:49:19.335Z,100164.00
2022-08-23T02:51:46.372Z,100167.22
2022-08-23T02:54:13.449Z,100166.75
2022-08-23T02:56:41.042Z,100166.97
2022-08-23T02:59:09.456Z,100163.91
2022-08-23T03:01:39.344Z,100167.94
2022-08-23T03:04:09.847Z,100164.38
2022-08-23T03:06:38.490Z,100167.94
2022-08-23T03:09:07.695Z,100158.50
2022-08-23T03:11:35.272Z,100161.72
2022-08-23T03:14:02.329Z,100165.19
2022-08-23T03:16:29.581Z,100173.66
2022-08-23T03:18:56.832Z,100164.09
2022-08-23T03:21:23.681Z,100160.63
2022-08-23T03:23:51.560Z,100172.69
2022-08-23T03:26:19.500Z,100164.81
2022-08-23T03:28:46.566Z,100174.31
2022-08-23T03:31:15.588Z,100164.06
2022-08-23T03:33:42.604Z,100171.31
2022-08-23T03:36:12.224Z,100172.88
2022-08-23T03:38:40.764Z,100174.53
2022-08-23T03:41:09.252Z,100170.34
2022-08-23T03:43:37.627Z,100176.91
2022-08-23T03:46:06.444Z,100179.88
2022-08-23T03:48:33.436Z,100185.34
2022-08-23T03:51:00.380Z,100181.19
2022-08-23T03:53:27.417Z,100183.69
2022-08-23T03:55:56.525Z,100188.59
2022-08-23T03:58:24.593Z,100190.25
2022-08-23T04:00:51.541Z,100182.88
2022-08-23T04:03:18.678Z,100187.50
2022-08-23T04:05:46.405Z,100193.34
2022-08-23T04:08:14.172Z,100198.84
2022-08-23T04:10:45.200Z,100196.69
2022-08-23T04:13:12.193Z,100198.38
2022-08-23T04:15:39.149Z,100189.06
2022-08-23T04:18:10.708Z,100194.31
2022-08-23T04:20:38.154Z,100188.00
2022-08-23T04:23:05.664Z,100189.94
2022-08-23T04:25:35.585Z,100184.19
2022-08-23T04:28:05.133Z,100183.59
2022-08-23T04:30:33.518Z,100185.72
2022-08-23T04:33:01.706Z,100188.09
2022-08-23T04:35:29.092Z,100198.69
2022-08-23T04:37:55.949Z,100193.09
2022-08-23T04:40:41.323Z,100190.19
2022-08-23T04:43:08.853Z,100192.81
2022-08-23T04:45:39.340Z,100191.56
2022-08-23T04:48:11.676Z,100195.84
2022-08-23T04:50:39.364Z,100185.31
2022-08-23T04:53:07.544Z,100185.81
2022-08-23T04:55:36.390Z,100174.84
2022-08-23T04:58:05.217Z,100183.53
2022-08-23T05:00:32.710Z,100182.91
2022-08-23T05:02:59.737Z,100186.72
2022-08-23T05:05:28.123Z,100183.38
2022-08-23T05:07:55.716Z,100191.59
2022-08-23T05:10:23.203Z,100193.72
2022-08-23T05:12:50.082Z,100195.41
2022-08-23T05:15:17.078Z,100188.84
2022-08-23T05:17:44.397Z,100198.53
2022-08-23T05:20:11.683Z,100209.03
2022-08-23T05:22:41.846Z,100206.66
2022-08-23T05:25:09.984Z,100204.91
2022-08-23T05:27:37.916Z,100210.16
2022-08-23T05:30:07.591Z,100204.25
2022-08-23T05:32:34.820Z,100209.25
2022-08-23T05:35:01.703Z,100215.47
2022-08-23T05:37:28.711Z,100218.16
2022-08-23T05:39:55.582Z,100222.31
2022-08-23T05:42:22.935Z,100220.56
2022-08-23T05:44:49.741Z,100216.88
2022-08-23T05:47:17.799Z,100224.19
2022-08-23T05:49:51.616Z,100231.09
2022-08-23T05:52:18.805Z,100230.38
2022-08-23T05:54:45.618Z,100225.88
2022-08-23T05:57:12.451Z,100226.00
2022-08-23T05:59:40.784Z,100233.41
2022-08-23T06:02:07.951Z,100236.53
2022-08-23T06:04:35.097Z,100240.94
2022-08-23T06:07:02.017Z,100235.00
2022-08-23T06:09:28.832Z,100236.19
2022-08-23T06:11:55.666Z,100244.19
2022-08-23T06:14:23.805Z,100237.38
2022-08-23T06:16:55.732Z,100245.75
2022-08-23T06:19:23.272Z,100242.78
2022-08-23T06:21:52.109Z,100241.47
2022-08-23T06:24:20.334Z,100248.38
2022-08-23T06:26:47.891Z,100242.66
2022-08-23T06:29:19.001Z,100252.56
2022-08-23T06:31:51.172Z,100233.59
2022-08-23T06:34:34.767Z,100238.72
2022-08-23T06:37:08.682Z,100231.94
2022-08-23T06:39:37.878Z,100233.63
2022-08-23T06:42:36.503Z,100237.19
2022-08-23T06:44:56.648Z,100242.00
2022-08-23T06:47:23.760Z,100242.59
2022-08-23T06:49:51.081Z,100235.69
2022-08-23T06:52:27.710Z,100243.19
2022-08-23T06:54:55.505Z,100239.97
2022-08-23T06:57:24.958Z,100254.66
2022-08-23T06:59:51.768Z,100258.84
2022-08-23T07:02:21.772Z,100263.88
2022-08-23T07:04:54.116Z,100264.47
2022-08-23T07:07:21.582Z,100261.13
2022-08-23T07:09:48.426Z,100262.91
2022-08-23T07:12:15.740Z,100263.28
2022-08-23T07:14:43.068Z,100277.84
2022-08-23T07:17:10.067Z,100276.88
2022-08-23T07:19:37.019Z,100280.09
2022-08-23T07:22:06.604Z,100277.84
2022-08-23T07:24:34.105Z,100274.00
2022-08-23T07:27:07.327Z,100283.69
2022-08-23T07:29:37.651Z,100275.19
2022-08-23T07:32:05.001Z,100278.19
2022-08-23T07:34:32.320Z,100282.59
2022-08-23T07:36:59.236Z,100284.97
2022-08-23T07:39:26.752Z,100280.31
2022-08-23T07:41:53.903Z,100288.69
2022-08-23T07:44:27.245Z,100288.31
2022-08-23T07:46:55.320Z,100280.56
2022-08-23T07:49:22.473Z,100283.91
2022-08-23T07:51:56.052Z,100283.66
2022-08-23T07:54:25.627Z,100293.94
2022-08-23T07:56:52.452Z,100297.53
2022-08-23T07:59:19.276Z,100302.78
2022-08-23T08:01:46.427Z,100303.13
2022-08-23T08:04:13.499Z,100298.31
2022-08-23T08:07:10.522Z,100295.84
2022-08-23T08:09:37.812Z,100299.59
2022-08-23T08:12:05.225Z,100304.75
2022-08-23T08:14:32.046Z,100312.59
2022-08-23T08:17:02.838Z,100304.69
2022-08-23T08:19:29.927Z,100306.81
2022-08-23T08:21:56.748Z,100305.81
2022-08-23T08:24:23.631Z,100296.91
2022-08-23T08:26:52.147Z,100297.41
2022-08-23T08:29:18.961Z,100307.00
2022-08-23T08:31:51.302Z,100296.41
2022-08-23T08:34:20.603Z,100304.28
2022-08-23T08:36:54.805Z,100302.16
2022-08-23T08:39:26.072Z,100306.09
2022-08-23T08:42:17.897Z,100308.09
2022-08-23T08:44:53.727Z,100308.84
2022-08-23T08:47:32.657Z,100300.91
2022-08-23T08:50:20.569Z,100295.00
2022-08-23T08:52:52.460Z,100301.75
2022-08-23T08:55:38.927Z,100305.56
2022-08-23T08:58:07.797Z,100294.13
2022-08-23T09:00:39.216Z,100301.28
2022-08-23T09:03:14.592Z,100290.00
2022-08-23T09:05:56.377Z,100287.31
2022-08-23T09:09:02.290Z,100291.25
2022-08-23T09:11:54.479Z,100278.53
2022-08-23T09:14:45.271Z,100279.59
2022-08-23T09:17:26.480Z,100274.09
2022-08-23T09:20:00.456Z,100264.13
2022-08-23T09:22:48.676Z,100277.00
2022-08-23T09:25:17.200Z,100280.41
2022-08-23T09:27:45.736Z,100276.88
2022-08-23T09:30:17.580Z,100286.56
2022-08-23T09:32:49.412Z,100288.81
2022-08-23T09:35:25.881Z,100300.91
2022-08-23T09:38:02.720Z,100307.94
2022-08-23T09:40:47.784Z,100303.00
2022-08-23T09:43:23.772Z,100305.31
2022-08-23T09:45:50.559Z,100306.94
2022-08-23T09:48:44.287Z,100295.59
2022-08-23T09:51:35.177Z,100292.56
2022-08-23T09:54:18.230Z,100286.72
2022-08-23T09:56:53.748Z,100290.50
2022-08-23T09:59:27.656Z,100291.38
2022-08-23T10:01:58.580Z,100294.16
2022-08-23T10:04:44.858Z,100283.66
2022-08-23T10:07:43.202Z,100292.00
2022-08-23T10:10:25.778Z,100291.44
2022-08-23T10:12:54.551Z,100297.56
2022-08-23T10:16:04.965Z,100303.63
2022-08-23T10:18:58.900Z,100309.16
2022-08-23T10:21:38.120Z,100307.53
2022-08-23T10:24:39.616Z,100301.41
2022-08-23T10:27:44.079Z,100309.75
2022-08-23T10:30:29.336Z,100296.50
2022-08-23T10:33:07.414Z,100308.09
2022-08-23T10:35:47.537Z,100301.41
2022-08-23T10:38:20.154Z,100302.25
2022-08-23T10:41:19.636Z,100308.06
2022-08-23T10:44:02.231Z,100313.34
2022-08-23T10:46:31.733Z,100316.06
2022-08-23T10:49:01.831Z,100313.75
2022-08-23T10:51:40.436Z,100309.00
2022-08-23T10:54:19.300Z,100313.56
2022-08-23T10:56:48.838Z,100325.28
2022-08-23T10:59:24.230Z,100330.19
2022-08-23T11:02:21.322Z,100327.44
2022-08-23T11:05:27.432Z,100328.00
2022-08-23T11:08:03.665Z,100329.09
2022-08-23T11:10:55.731Z,100337.72
2022-08-23T11:13:28.404Z,100338.53
2022-08-23T11:15:57.428Z,100327.56
2022-08-23T11:18:39.246Z,100332.09
2022-08-23T11:21:38.651Z,100321.50
2022-08-23T11:24:05.382Z,100316.94
2022-08-23T11:26:40.158Z,100317.03
2022-08-23T11:29:07.267Z,100308.81
2022-08-23T11:31:36.188Z,100309.97
2022-08-23T11:34:12.062Z,100322.22
2022-08-23T11:36:39.635Z,100323.16
2022-08-23T11:39:10.660Z,100315.72
2022-08-23T11:42:01.900Z,100319.38
2022-08-23T11:44:47.659Z,100313.03
2022-08-23T11:47:14.900Z,100316.13
2022-08-23T11:50:00.900Z,100315.63
2022-08-23T11:52:52.491Z,100318.13
2022-08-23T11:56:16.691Z,100324.78
2022-08-23T11:59:20.861Z,100324.19
2022-08-23T12:01:48.021Z,100312.56
2022-08-23T12:04:42.588Z,100312.56
2022-08-23T12:07:13.703Z,100313.63
2022-08-23T12:09:40.435Z,100314.19
2022-08-23T12:12:26.593Z,100309.16
2022-08-23T12:15:01.440Z,100314.16
2022-08-23T12:17:31.898Z,100310.25
2022-08-23T12:20:17.230Z,100314.13
2022-08-23T12:22:58.188Z,100311.31
2022-08-23T12:25:25.380Z,100311.91
2022-08-23T12:28:30.198Z,100308.56
2022-08-23T12:31:25.495Z,100309.69
2022-08-23T12:34:22.927Z,100311.94
2022-08-23T12:37:31.392Z,100309.50
2022-08-23T12:40:02.522Z,100297.31
2022-08-23T12:42:34.539Z,100302.84
2022-08-23T12:45:16.851Z,100312.56
2022-08-23T12:47:56.816Z,100303.13
2022-08-23T12:50:32.655Z,100301.50
2022-08-23T12:53:12.695Z,100302.88
2022-08-23T12:55:50.703Z,100299.00
2022-08-23T12:58:33.264Z,100297.59
2022-08-23T13:01:06.686Z,100302.84
2022-08-23T13:03:40.506Z,100310.03
2022-08-23T13:06:13.573Z,100309.50
2022-08-23T13:08:50.204Z,100312.56
2022-08-23T13:11:22.068Z,100303.41
2022-08-23T13:13:50.022Z,100313.94
2022-08-23T13:16:27.382Z,100310.00
2022-08-23T13:18:56.838Z,100311.09
2022-08-23T13:21:23.678Z,100313.03
2022-08-23T13:23:54.772Z,100299.75
2022-08-23T13:26:43.761Z,100293.34
2022-08-23T13:29:12.302Z,100298.69
2022-08-23T13:31:54.180Z,100298.97
2022-08-23T13:34:48.775Z,100298.69
2022-08-23T13:37:27.004Z,100299.53
2022-08-23T13:39:58.461Z,100298.72
2022-08-23T13:42:48.512Z,100300.94
2022-08-23T13:45:24.610Z,100302.56
2022-08-23T13:48:00.997Z,100300.09
2022-08-23T13:50:34.950Z,100292.06
2022-08-23T13:53:14.286Z,100301.78
2022-08-23T13:55:56.166Z,100299.81
2022-08-23T13:58:34.419Z,100302.59
2022-08-23T14:01:04.302Z,100300.13
2022-08-23T14:03:32.929Z,100296.50
2022-08-23T14:05:59.777Z,100298.72
2022-08-23T14:08:26.644Z,100300.38
2022-08-23T14:10:53.600Z,100305.38
2022-08-23T14:13:24.080Z,100289.56
2022-08-23T14:16:32.219Z,100294.84
2022-08-23T14:19:14.509Z,100294.00
2022-08-23T14:21:24.647Z,100299.84
2022-08-23T14:23:51.561Z,100296.50
2022-08-23T14:26:20.426Z,100291.22
2022-08-23T14:28:47.471Z,100297.03
2022-08-23T14:31:21.320Z,100294.28
2022-08-23T14:33:49.035Z,100297.00
2022-08-23T14:36:16.633Z,100291.72
2022-08-23T14:38:43.763Z,100280.31
2022-08-23T14:41:19.248Z,100290.31
2022-08-23T14:43:46.069Z,100289.72
2022-08-23T14:46:13.295Z,100295.81
2022-08-23T14:48:40.355Z,100288.63
2022-08-23T14:51:25.177Z,100286.09
2022-08-23T14:53:52.759Z,100275.19
2022-08-23T14:56:21.769Z,100281.91
2022-08-23T14:58:50.444Z,100285.81
2022-08-23T15:01:19.333Z,100287.72
2022-08-23T15:03:47.827Z,100284.41
2022-08-23T15:06:17.303Z,100278.06
2022-08-23T15:08:44.758Z,100283.09
2022-08-23T15:14:03.853Z,100278.16
2022-08-23T15:16:31.152Z,100285.38
2022-08-23T15:18:58.649Z,100289.00
2022-08-23T15:21:26.028Z,100289.00
2022-08-23T15:23:53.019Z,100288.19
2022-08-23T15:26:24.484Z,100290.94
2022-08-23T15:28:52.105Z,100292.63
2022-08-23T15:31:20.372Z,100291.78
2022-08-23T15:33:47.352Z,100294.28
2022-08-23T15:36:17.131Z,100299.81
2022-08-23T15:38:48.043Z,100297.59
2022-08-23T15:41:18.624Z,100295.38
2022-08-23T15:43:45.988Z,100304.22
2022-08-23T15:46:20.569Z,100300.38
2022-08-23T15:48:57.893Z,100305.63
2022-08-23T15:51:26.038Z,100308.09
2022-08-23T15:53:53.057Z,100310.25
2022-08-23T15:56:31.094Z,100313.03
2022-08-23T15:58:58.096Z,100320.81
2022-08-23T16:01:25.792Z,100321.91
2022-08-23T16:03:52.844Z,100316.06
2022-08-23T16:06:20.180Z,100321.53
2022-08-23T16:08:52.519Z,100320.22
2022-08-23T16:11:20.895Z,100314.09
2022-08-23T16:13:49.888Z,100329.34
2022-08-23T16:16:31.494Z,100324.06
2022-08-23T16:19:01.052Z,100323.53
2022-08-23T16:21:30.832Z,100316.84
2022-08-23T16:23:59.024Z,100321.84
2022-08-23T16:26:35.297Z,100318.84
2022-08-23T16:29:06.775Z,100318.25
2022-08-23T16:31:38.665Z,100317.09
2022-08-23T16:34:09.421Z,100321.53
2022-08-23T16:36:37.233Z,100311.56
2022-08-23T16:39:05.960Z,100316.59
2022-08-23T16:41:33.160Z,100318.75
2022-08-23T16:44:00.206Z,100325.41
2022-08-23T16:46:29.167Z,100321.81
2022-08-23T16:48:56.051Z,100322.66
2022-08-23T16:51:23.887Z,100320.69
2022-08-23T16:53:55.645Z,100321.53
2022-08-23T16:56:33.615Z,100321.22
2022-08-23T16:59:01.318Z,100322.91
2022-08-23T17:01:29.635Z,100321.19
2022-08-23T17:03:56.704Z,100328.66
2022-08-23T17:06:23.513Z,100323.94
2022-08-23T17:08:50.463Z,100333.88
2022-08-23T17:11:19.707Z,100329.38
2022-08-23T17:13:47.795Z,100331.25
2022-08-23T17:16:14.867Z,100329.78
2022-08-23T17:18:41.865Z,100325.84
2022-08-23T17:21:09.572Z,100331.94
2022-08-23T17:23:40.439Z,100333.28
2022-08-23T17:26:09.644Z,100340.44
2022-08-23T17:28:36.546Z,100350.91
2022-08-23T17:31:03.672Z,100341.47
2022-08-23T17:33:30.679Z,100351.69
2022-08-23T17:35:57.912Z,100351.66
2022-08-23T17:38:24.773Z,100348.31
2022-08-23T17:40:51.614Z,100337.47
2022-08-23T17:43:18.608Z,100331.66
2022-08-23T17:45:49.291Z,100339.41
2022-08-23T17:48:19.089Z,100334.34
2022-08-23T17:50:48.441Z,100331.38
2022-08-23T17:53:17.980Z,100325.06
2022-08-23T17:55:45.155Z,100325.06
2022-08-23T17:58:12.450Z,100328.34
2022-08-23T18:00:40.608Z,100342.72
2022-08-23T18:03:07.889Z,100338.53
2022-08-23T18:05:41.225Z,100336.00
2022-08-23T18:08:08.545Z,100326.56
2022-08-23T18:10:36.333Z,100336.75
2022-08-23T18:13:03.967Z,100332.31
2022-08-23T18:15:31.434Z,100326.75
2022-08-23T18:18:00.349Z,100340.00
2022-08-23T18:20:28.520Z,100364.88
2022-08-23T18:22:57.595Z,100375.59
2022-08-23T18:25:25.956Z,100378.06
2022-08-23T18:28:13.083Z,100368.69
2022-08-23T18:31:03.723Z,100376.28
2022-08-23T18:33:47.045Z,100385.13
2022-08-23T18:36:15.749Z,100370.97
2022-08-23T18:38:42.577Z,100362.69
2022-08-23T18:41:09.504Z,100366.47
2022-08-23T18:43:37.167Z,100370.53
2022-08-23T18:46:05.771Z,100366.88
2022-08-23T18:48:34.016Z,100375.41
2022-08-23T18:51:01.234Z,100371.50
2022-08-23T18:53:28.857Z,100368.69
2022-08-23T18:55:55.712Z,100373.28
2022-08-23T18:58:23.423Z,100377.63
2022-08-23T19:00:52.724Z,100376.47
2022-08-23T19:03:20.592Z,100385.84
2022-08-23T19:05:48.327Z,100386.84
2022-08-23T19:08:15.431Z,100382.94
2022-08-23T19:10:43.921Z,100381.22
2022-08-23T19:13:12.511Z,100391.09
2022-08-23T19:15:40.650Z,100397.38
2022-08-23T19:18:08.523Z,100407.25
2022-08-23T19:20:37.561Z,100396.97
2022-08-23T19:23:04.988Z,100407.69
2022-08-23T19:25:34.082Z,100394.13
2022-08-23T19:28:01.000Z,100390.72
2022-08-23T19:30:28.585Z,100397.34
2022-08-23T19:32:56.819Z,100403.00
2022-08-23T19:35:23.998Z,100404.03
2022-08-23T19:37:51.215Z,100406.44
2022-08-23T19:40:19.162Z,100398.19
2022-08-23T19:42:46.347Z,100402.00
2022-08-23T19:45:14.028Z,100416.56
2022-08-23T19:47:40.982Z,100422.06
2022-08-23T19:50:10.013Z,100435.75
2022-08-23T19:52:37.455Z,100440.44
2022-08-23T19:55:07.399Z,100443.78
2022-08-23T19:57:37.368Z,100437.09
2022-08-23T20:00:18.524Z,100443.94
2022-08-23T20:02:47.216Z,100457.72
2022-08-23T20:05:14.865Z,100459.28
2022-08-23T20:07:42.392Z,100456.81
2022-08-23T20:10:11.440Z,100462.81
2022-08-23T20:12:39.354Z,100460.53
2022-08-23T20:15:07.104Z,100449.78
2022-08-23T20:17:33.909Z,100445.56
2022-08-23T20:20:00.797Z,100442.25
2022-08-23T20:22:47.911Z,100449.44
2022-08-23T20:25:15.090Z,100448.84
2022-08-23T20:27:43.511Z,100451.59
2022-08-23T20:30:13.356Z,100448.50
2022-08-23T20:32:40.792Z,100446.22
2022-08-23T20:35:09.325Z,100451.41
2022-08-23T20:37:36.304Z,100455.25
2022-08-23T20:40:06.085Z,100451.91
2022-08-23T20:42:32.992Z,100452.41
2022-08-23T20:44:59.850Z,100451.81
2022-08-23T20:47:26.665Z,100439.34
2022-08-23T20:49:53.857Z,100432.19
2022-08-23T20:52:20.696Z,100427.50
2022-08-23T20:54:47.524Z,100424.63
2022-08-23T20:57:14.531Z,100439.03
2022-08-23T20:59:44.767Z,100424.06
2022-08-23T21:02:12.624Z,100438.69
2022-08-23T21:04:40.237Z,100431.72
2022-08-23T21:07:08.521Z,100438.34
2022-08-23T21:09:36.052Z,100444.69
2022-08-23T21:12:03.232Z,100434.72
2022-08-23T21:14:30.041Z,100444.91
2022-08-23T21:16:57.063Z,100440.50
2022-08-23T21:19:23.947Z,100435.22
2022-08-23T21:21:50.796Z,100433.31
2022-08-23T21:24:17.771Z,100435.72
2022-08-23T21:26:44.754Z,100440.03
2022-08-23T21:29:11.612Z,100444.63
2022-08-23T21:31:40.003Z,100450.13
2022-08-23T21:34:07.823Z,100445.44
2022-08-23T21:36:36.044Z,100444.03
2022-08-23T21:39:03.671Z,100443.19
2022-08-23T21:41:42.632Z,100444.25
2022-08-23T21:44:15.283Z,100448.44
2022-08-23T21:46:43.210Z,100444.63
2022-08-23T21:49:11.375Z,100441.63
2022-08-23T21:51:40.734Z,100441.63
2022-08-23T21:54:10.477Z,100438.63
2022-08-23T21:56:38.524Z,100436.13
2022-08-23T21:59:09.032Z,100430.59
2022-08-23T22:01:36.467Z,100425.44
2022-08-23T22:04:06.679Z,100420.41
2022-08-23T22:06:35.257Z,100413.25
2022-08-23T22:09:02.232Z,100412.75
2022-08-23T22:11:29.480Z,100406.41
2022-08-23T22:13:56.730Z,100411.09
2022-08-23T22:16:23.797Z,100411.09
2022-08-23T22:18:50.852Z,100412.75
2022-08-23T22:21:17.780Z,100412.75
2022-08-23T22:23:45.093Z,100421.50
2022-08-23T22:26:14.075Z,100419.81
2022-08-23T22:28:44.860Z,100412.97
2022-08-23T22:31:14.776Z,100420.19
2022-08-23T22:33:43.400Z,100413.72
2022-08-23T22:36:17.573Z,100415.91
2022-08-23T22:38:45.868Z,100401.16
2022-08-23T22:41:25.753Z,100411.81
2022-08-23T22:43:56.548Z,100409.06
2022-08-23T22:46:24.656Z,100406.31
2022-08-23T22:48:53.755Z,100401.63
2022-08-23T22:51:28.715Z,100411.00
2022-08-23T22:53:59.866Z,100401.28
2022-08-23T22:56:38.720Z,100405.63
2022-08-23T22:59:06.996Z,100397.59
2022-08-23T23:01:40.016Z,100402.44
2022-08-23T23:04:09.651Z,100407.31
2022-08-23T23:06:38.609Z,100410.34
2022-08-23T23:09:08.436Z,100409.75
2022-08-23T23:11:36.400Z,100416.31
2022-08-23T23:14:05.604Z,100411.28
2022-08-23T23:16:33.822Z,100413.22
2022-08-23T23:19:19.705Z,100406.38
2022-08-23T23:21:51.506Z,100399.69
2022-08-23T23:24:28.875Z,100400.53
2022-08-23T23:26:56.748Z,100409.88
2022-08-23T23:29:24.565Z,100401.38
2022-08-23T23:31:51.521Z,100408.06
2022-08-23T23:34:18.607Z,100410.22
2022-08-23T23:36:46.280Z,100412.75
2022-08-23T23:39:15.749Z,100408.06
2022-08-23T23:41:43.772Z,100419.06
2022-08-23T23:44:10.869Z,100419.06
2022-08-23T23:46:37.961Z,100412.50
2022-08-23T23:49:05.832Z,100414.16
2022-08-23T23:51:33.716Z,100412.22
2022-08-23T23:54:01.978Z,100415.25
2022-08-23T23:56:31.247Z,100413.56
2022-08-23T23:58:58.877Z,100399.81
